sensor_id;sensor_type;location;lat;lon;timestamp;P1;durP1;ratioP1;P2;durP2;ratioP2
12816;SDS011;6473;51.552;6.716;2022-09-09T00:01:58;0.50;;;0.50;;
12816;SDS011;6473;51.552;6.716;2022-09-09T00:04:28;1.13;;;0.77;;
12816;SDS011;6473;51.552;6.716;2022-09-09T00:06:59;0.80;;;0.80;;
12816;SDS011;6473;51.552;6.716;2022-09-09T00:09:36;0.85;;;0.80;;
12816;SDS011;6473;51.552;6.716;2022-09-09T00:12:53;1.17;;;0.65;;
12816;SDS011;6473;51.552;6.716;2022-09-09T00:15:28;1.05;;;0.77;;
12816;SDS011;6473;51.552;6.716;2022-09-09T00:18:27;0.82;;;0.80;;
12816;SDS011;6473;51.552;6.716;2022-09-09T00:21:05;1.25;;;0.52;;
12816;SDS011;6473;51.552;6.716;2022-09-09T00:23:35;1.13;;;0.88;;
12816;SDS011;6473;51.552;6.716;2022-09-09T00:26:05;1.20;;;0.82;;
12816;SDS011;6473;51.552;6.716;2022-09-09T00:28:44;1.95;;;1.00;;
12816;SDS011;6473;51.552;6.716;2022-09-09T00:31:18;1.45;;;0.93;;
12816;SDS011;6473;51.552;6.716;2022-09-09T00:33:49;0.80;;;0.80;;
12816;SDS011;6473;51.552;6.716;2022-09-09T00:36:26;3.63;;;1.10;;
12816;SDS011;6473;51.552;6.716;2022-09-09T00:38:56;0.90;;;0.90;;
12816;SDS011;6473;51.552;6.716;2022-09-09T00:41:33;0.70;;;0.70;;
12816;SDS011;6473;51.552;6.716;2022-09-09T00:44:19;1.38;;;0.70;;
12816;SDS011;6473;51.552;6.716;2022-09-09T00:47:00;0.85;;;0.68;;
12816;SDS011;6473;51.552;6.716;2022-09-09T00:49:48;3.20;;;1.02;;
12816;SDS011;6473;51.552;6.716;2022-09-09T00:52:30;1.00;;;0.90;;
12816;SDS011;6473;51.552;6.716;2022-09-09T00:55:05;0.93;;;0.90;;
12816;SDS011;6473;51.552;6.716;2022-09-09T00:57:38;1.15;;;1.00;;
12816;SDS011;6473;51.552;6.716;2022-09-09T01:03:08;1.85;;;1.20;;
12816;SDS011;6473;51.552;6.716;2022-09-09T01:05:46;1.42;;;1.20;;
12816;SDS011;6473;51.552;6.716;2022-09-09T01:11:41;1.20;;;1.10;;
12816;SDS011;6473;51.552;6.716;2022-09-09T01:14:20;1.40;;;1.13;;
12816;SDS011;6473;51.552;6.716;2022-09-09T01:16:59;3.38;;;1.20;;
12816;SDS011;6473;51.552;6.716;2022-09-09T01:19:38;1.48;;;1.20;;
12816;SDS011;6473;51.552;6.716;2022-09-09T01:22:19;3.15;;;1.70;;
12816;SDS011;6473;51.552;6.716;2022-09-09T01:28:13;4.57;;;2.20;;
12816;SDS011;6473;51.552;6.716;2022-09-09T01:30:46;2.33;;;2.13;;
12816;SDS011;6473;51.552;6.716;2022-09-09T01:33:16;8.18;;;2.47;;
12816;SDS011;6473;51.552;6.716;2022-09-09T01:35:45;2.40;;;2.20;;
12816;SDS011;6473;51.552;6.716;2022-09-09T01:38:22;5.82;;;2.40;;
12816;SDS011;6473;51.552;6.716;2022-09-09T01:40:52;3.35;;;2.33;;
12816;SDS011;6473;51.552;6.716;2022-09-09T01:43:25;4.28;;;2.70;;
12816;SDS011;6473;51.552;6.716;2022-09-09T01:49:35;5.70;;;3.33;;
12816;SDS011;6473;51.552;6.716;2022-09-09T01:52:10;4.63;;;3.47;;
12816;SDS011;6473;51.552;6.716;2022-09-09T01:54:38;4.43;;;3.63;;
12816;SDS011;6473;51.552;6.716;2022-09-09T01:57:11;4.25;;;3.50;;
12816;SDS011;6473;51.552;6.716;2022-09-09T01:59:50;5.18;;;3.95;;
12816;SDS011;6473;51.552;6.716;2022-09-09T02:02:30;5.88;;;4.18;;
12816;SDS011;6473;51.552;6.716;2022-09-09T02:05:11;6.10;;;4.32;;
12816;SDS011;6473;51.552;6.716;2022-09-09T02:07:49;4.43;;;3.63;;
12816;SDS011;6473;51.552;6.716;2022-09-09T02:10:37;4.97;;;3.63;;
12816;SDS011;6473;51.552;6.716;2022-09-09T02:13:18;4.15;;;3.55;;
12816;SDS011;6473;51.552;6.716;2022-09-09T02:15:52;3.92;;;2.90;;
12816;SDS011;6473;51.552;6.716;2022-09-09T02:18:23;3.17;;;2.28;;
12816;SDS011;6473;51.552;6.716;2022-09-09T02:20:53;2.55;;;2.17;;
12816;SDS011;6473;51.552;6.716;2022-09-09T02:23:22;2.53;;;1.73;;
12816;SDS011;6473;51.552;6.716;2022-09-09T02:25:53;2.20;;;1.67;;
12816;SDS011;6473;51.552;6.716;2022-09-09T02:28:26;3.00;;;1.90;;
12816;SDS011;6473;51.552;6.716;2022-09-09T02:31:06;4.22;;;1.45;;
12816;SDS011;6473;51.552;6.716;2022-09-09T02:33:40;3.03;;;1.38;;
12816;SDS011;6473;51.552;6.716;2022-09-09T02:36:10;5.00;;;1.38;;
12816;SDS011;6473;51.552;6.716;2022-09-09T02:38:42;2.05;;;1.63;;
12816;SDS011;6473;51.552;6.716;2022-09-09T02:41:16;2.03;;;1.30;;
12816;SDS011;6473;51.552;6.716;2022-09-09T02:43:47;2.05;;;1.10;;
12816;SDS011;6473;51.552;6.716;2022-09-09T02:46:21;3.50;;;1.10;;
12816;SDS011;6473;51.552;6.716;2022-09-09T02:48:58;3.08;;;1.52;;
12816;SDS011;6473;51.552;6.716;2022-09-09T02:51:34;2.70;;;1.30;;
12816;SDS011;6473;51.552;6.716;2022-09-09T02:54:21;1.38;;;1.27;;
12816;SDS011;6473;51.552;6.716;2022-09-09T02:56:53;2.20;;;0.93;;
12816;SDS011;6473;51.552;6.716;2022-09-09T02:59:28;1.40;;;1.00;;
12816;SDS011;6473;51.552;6.716;2022-09-09T03:01:57;2.97;;;0.95;;
12816;SDS011;6473;51.552;6.716;2022-09-09T03:04:24;4.13;;;1.30;;
12816;SDS011;6473;51.552;6.716;2022-09-09T03:06:51;4.45;;;1.42;;
12816;SDS011;6473;51.552;6.716;2022-09-09T03:09:20;2.88;;;1.20;;
12816;SDS011;6473;51.552;6.716;2022-09-09T03:14:31;1.50;;;1.20;;
12816;SDS011;6473;51.552;6.716;2022-09-09T03:17:01;3.17;;;1.50;;
12816;SDS011;6473;51.552;6.716;2022-09-09T03:19:34;3.08;;;1.25;;
12816;SDS011;6473;51.552;6.716;2022-09-09T03:22:05;3.80;;;1.55;;
12816;SDS011;6473;51.552;6.716;2022-09-09T03:24:45;1.92;;;1.48;;
12816;SDS011;6473;51.552;6.716;2022-09-09T03:27:13;2.20;;;1.15;;
12816;SDS011;6473;51.552;6.716;2022-09-09T03:29:41;2.17;;;1.50;;
12816;SDS011;6473;51.552;6.716;2022-09-09T03:32:14;4.32;;;1.23;;
12816;SDS011;6473;51.552;6.716;2022-09-09T03:34:43;3.60;;;1.45;;
12816;SDS011;6473;51.552;6.716;2022-09-09T03:37:13;2.15;;;1.15;;
12816;SDS011;6473;51.552;6.716;2022-09-09T03:39:40;2.58;;;1.33;;
12816;SDS011;6473;51.552;6.716;2022-09-09T03:42:08;3.03;;;1.30;;
12816;SDS011;6473;51.552;6.716;2022-09-09T03:44:36;2.20;;;1.30;;
12816;SDS011;6473;51.552;6.716;2022-09-09T03:47:03;2.22;;;1.10;;
12816;SDS011;6473;51.552;6.716;2022-09-09T03:49:31;3.45;;;1.40;;
12816;SDS011;6473;51.552;6.716;2022-09-09T03:51:59;3.10;;;1.30;;
12816;SDS011;6473;51.552;6.716;2022-09-09T03:54:26;1.80;;;1.17;;
12816;SDS011;6473;51.552;6.716;2022-09-09T03:56:54;4.22;;;1.00;;
12816;SDS011;6473;51.552;6.716;2022-09-09T03:59:23;2.58;;;1.27;;
12816;SDS011;6473;51.552;6.716;2022-09-09T04:01:53;2.33;;;1.17;;
12816;SDS011;6473;51.552;6.716;2022-09-09T04:04:22;2.00;;;1.02;;
12816;SDS011;6473;51.552;6.716;2022-09-09T04:07:11;2.20;;;1.48;;
12816;SDS011;6473;51.552;6.716;2022-09-09T04:09:39;1.15;;;1.15;;
12816;SDS011;6473;51.552;6.716;2022-09-09T04:12:06;2.58;;;1.50;;
12816;SDS011;6473;51.552;6.716;2022-09-09T04:14:34;5.30;;;1.88;;
12816;SDS011;6473;51.552;6.716;2022-09-09T04:17:09;2.25;;;1.20;;
12816;SDS011;6473;51.552;6.716;2022-09-09T04:19:36;1.10;;;1.00;;
12816;SDS011;6473;51.552;6.716;2022-09-09T04:22:03;1.77;;;1.48;;
12816;SDS011;6473;51.552;6.716;2022-09-09T04:24:33;4.85;;;1.50;;
12816;SDS011;6473;51.552;6.716;2022-09-09T04:27:00;3.63;;;1.38;;
12816;SDS011;6473;51.552;6.716;2022-09-09T04:29:30;1.75;;;1.23;;
12816;SDS011;6473;51.552;6.716;2022-09-09T04:31:58;5.47;;;1.50;;
12816;SDS011;6473;51.552;6.716;2022-09-09T04:37:09;1.55;;;1.23;;
12816;SDS011;6473;51.552;6.716;2022-09-09T04:39:56;3.22;;;1.40;;
12816;SDS011;6473;51.552;6.716;2022-09-09T04:42:27;2.42;;;1.40;;
12816;SDS011;6473;51.552;6.716;2022-09-09T04:45:13;4.22;;;1.33;;
12816;SDS011;6473;51.552;6.716;2022-09-09T04:47:44;1.90;;;1.17;;
12816;SDS011;6473;51.552;6.716;2022-09-09T04:50:11;2.58;;;1.33;;
12816;SDS011;6473;51.552;6.716;2022-09-09T04:58:08;2.67;;;1.40;;
12816;SDS011;6473;51.552;6.716;2022-09-09T05:00:35;3.00;;;1.33;;
12816;SDS011;6473;51.552;6.716;2022-09-09T05:03:05;3.72;;;1.55;;
12816;SDS011;6473;51.552;6.716;2022-09-09T05:05:33;3.38;;;1.50;;
12816;SDS011;6473;51.552;6.716;2022-09-09T05:08:01;3.00;;;1.42;;
12816;SDS011;6473;51.552;6.716;2022-09-09T05:10:36;3.83;;;1.60;;
12816;SDS011;6473;51.552;6.716;2022-09-09T05:13:06;2.17;;;1.42;;
12816;SDS011;6473;51.552;6.716;2022-09-09T05:15:33;2.65;;;1.40;;
12816;SDS011;6473;51.552;6.716;2022-09-09T05:18:11;1.20;;;1.10;;
12816;SDS011;6473;51.552;6.716;2022-09-09T05:20:39;6.93;;;1.90;;
12816;SDS011;6473;51.552;6.716;2022-09-09T05:23:08;4.68;;;1.60;;
12816;SDS011;6473;51.552;6.716;2022-09-09T05:25:37;3.10;;;1.42;;
12816;SDS011;6473;51.552;6.716;2022-09-09T05:28:19;4.20;;;1.42;;
12816;SDS011;6473;51.552;6.716;2022-09-09T05:30:48;3.63;;;1.58;;
12816;SDS011;6473;51.552;6.716;2022-09-09T05:33:36;3.30;;;1.50;;
12816;SDS011;6473;51.552;6.716;2022-09-09T05:36:06;3.50;;;1.40;;
12816;SDS011;6473;51.552;6.716;2022-09-09T05:38:36;3.47;;;1.80;;
12816;SDS011;6473;51.552;6.716;2022-09-09T05:41:05;4.32;;;1.60;;
12816;SDS011;6473;51.552;6.716;2022-09-09T05:43:34;3.83;;;1.77;;
12816;SDS011;6473;51.552;6.716;2022-09-09T05:46:22;2.60;;;1.77;;
12816;SDS011;6473;51.552;6.716;2022-09-09T05:48:55;4.57;;;1.52;;
12816;SDS011;6473;51.552;6.716;2022-09-09T05:51:29;4.80;;;2.00;;
12816;SDS011;6473;51.552;6.716;2022-09-09T05:54:09;2.80;;;1.60;;
12816;SDS011;6473;51.552;6.716;2022-09-09T05:56:42;4.35;;;1.63;;
12816;SDS011;6473;51.552;6.716;2022-09-09T05:59:20;2.80;;;2.10;;
12816;SDS011;6473;51.552;6.716;2022-09-09T06:01:50;3.28;;;1.73;;
12816;SDS011;6473;51.552;6.716;2022-09-09T06:04:25;3.80;;;1.65;;
12816;SDS011;6473;51.552;6.716;2022-09-09T06:06:53;2.55;;;1.45;;
12816;SDS011;6473;51.552;6.716;2022-09-09T06:09:21;9.70;;;1.98;;
12816;SDS011;6473;51.552;6.716;2022-09-09T06:11:48;4.07;;;2.03;;
12816;SDS011;6473;51.552;6.716;2022-09-09T06:14:21;3.95;;;2.00;;
12816;SDS011;6473;51.552;6.716;2022-09-09T06:16:50;3.60;;;1.73;;
12816;SDS011;6473;51.552;6.716;2022-09-09T06:19:21;4.18;;;1.40;;
12816;SDS011;6473;51.552;6.716;2022-09-09T06:21:49;3.28;;;1.77;;
12816;SDS011;6473;51.552;6.716;2022-09-09T06:24:17;1.75;;;1.40;;
12816;SDS011;6473;51.552;6.716;2022-09-09T06:26:45;3.95;;;1.52;;
12816;SDS011;6473;51.552;6.716;2022-09-09T06:29:18;3.83;;;1.70;;
12816;SDS011;6473;51.552;6.716;2022-09-09T06:31:46;3.28;;;1.50;;
12816;SDS011;6473;51.552;6.716;2022-09-09T06:34:20;3.10;;;1.27;;
12816;SDS011;6473;51.552;6.716;2022-09-09T06:36:54;5.32;;;1.65;;
12816;SDS011;6473;51.552;6.716;2022-09-09T06:39:23;1.63;;;1.48;;
12816;SDS011;6473;51.552;6.716;2022-09-09T06:41:51;3.53;;;1.40;;
12816;SDS011;6473;51.552;6.716;2022-09-09T06:44:38;3.03;;;1.60;;
12816;SDS011;6473;51.552;6.716;2022-09-09T06:47:12;4.03;;;1.42;;
12816;SDS011;6473;51.552;6.716;2022-09-09T06:50:01;2.10;;;1.17;;
12816;SDS011;6473;51.552;6.716;2022-09-09T06:52:30;4.40;;;1.45;;
12816;SDS011;6473;51.552;6.716;2022-09-09T06:54:59;3.30;;;1.50;;
12816;SDS011;6473;51.552;6.716;2022-09-09T06:57:26;2.55;;;1.40;;
12816;SDS011;6473;51.552;6.716;2022-09-09T06:59:55;5.22;;;1.52;;
12816;SDS011;6473;51.552;6.716;2022-09-09T07:02:24;3.15;;;1.20;;
12816;SDS011;6473;51.552;6.716;2022-09-09T07:05:08;2.05;;;1.23;;
12816;SDS011;6473;51.552;6.716;2022-09-09T07:07:37;3.97;;;1.30;;
12816;SDS011;6473;51.552;6.716;2022-09-09T07:10:08;6.13;;;1.75;;
12816;SDS011;6473;51.552;6.716;2022-09-09T07:12:36;3.00;;;1.30;;
12816;SDS011;6473;51.552;6.716;2022-09-09T07:15:07;3.25;;;1.30;;
12816;SDS011;6473;51.552;6.716;2022-09-09T07:18:04;4.18;;;1.70;;
12816;SDS011;6473;51.552;6.716;2022-09-09T07:20:34;4.30;;;1.60;;
12816;SDS011;6473;51.552;6.716;2022-09-09T07:23:01;5.97;;;1.50;;
12816;SDS011;6473;51.552;6.716;2022-09-09T07:25:28;3.53;;;1.35;;
12816;SDS011;6473;51.552;6.716;2022-09-09T07:27:56;4.38;;;1.20;;
12816;SDS011;6473;51.552;6.716;2022-09-09T07:30:54;6.38;;;1.45;;
12816;SDS011;6473;51.552;6.716;2022-09-09T07:33:24;5.25;;;1.13;;
12816;SDS011;6473;51.552;6.716;2022-09-09T07:35:52;2.58;;;1.10;;
12816;SDS011;6473;51.552;6.716;2022-09-09T07:38:20;3.92;;;1.40;;
12816;SDS011;6473;51.552;6.716;2022-09-09T07:40:48;2.58;;;1.23;;
12816;SDS011;6473;51.552;6.716;2022-09-09T07:43:18;6.88;;;1.80;;
12816;SDS011;6473;51.552;6.716;2022-09-09T07:45:46;2.63;;;1.17;;
12816;SDS011;6473;51.552;6.716;2022-09-09T07:48:15;2.17;;;1.30;;
12816;SDS011;6473;51.552;6.716;2022-09-09T07:50:43;2.88;;;1.40;;
12816;SDS011;6473;51.552;6.716;2022-09-09T07:53:24;5.88;;;1.30;;
12816;SDS011;6473;51.552;6.716;2022-09-09T07:55:52;5.13;;;1.40;;
12816;SDS011;6473;51.552;6.716;2022-09-09T07:58:21;3.67;;;1.10;;
12816;SDS011;6473;51.552;6.716;2022-09-09T08:01:07;3.58;;;1.40;;
12816;SDS011;6473;51.552;6.716;2022-09-09T08:03:40;3.88;;;1.20;;
12816;SDS011;6473;51.552;6.716;2022-09-09T08:06:08;3.75;;;1.40;;
12816;SDS011;6473;51.552;6.716;2022-09-09T08:08:41;3.45;;;1.35;;
12816;SDS011;6473;51.552;6.716;2022-09-09T08:11:10;2.30;;;0.90;;
12816;SDS011;6473;51.552;6.716;2022-09-09T08:13:40;2.97;;;1.25;;
12816;SDS011;6473;51.552;6.716;2022-09-09T08:16:15;2.97;;;1.20;;
12816;SDS011;6473;51.552;6.716;2022-09-09T08:19:00;2.67;;;1.30;;
12816;SDS011;6473;51.552;6.716;2022-09-09T08:24:35;3.35;;;1.23;;
12816;SDS011;6473;51.552;6.716;2022-09-09T08:27:02;1.10;;;0.93;;
12816;SDS011;6473;51.552;6.716;2022-09-09T08:29:45;3.35;;;1.00;;
12816;SDS011;6473;51.552;6.716;2022-09-09T08:32:17;3.65;;;1.30;;
12816;SDS011;6473;51.552;6.716;2022-09-09T08:34:54;4.15;;;1.13;;
12816;SDS011;6473;51.552;6.716;2022-09-09T08:37:24;3.88;;;1.20;;
12816;SDS011;6473;51.552;6.716;2022-09-09T08:39:54;2.42;;;1.35;;
12816;SDS011;6473;51.552;6.716;2022-09-09T08:42:24;2.22;;;0.93;;
12816;SDS011;6473;51.552;6.716;2022-09-09T08:45:24;2.00;;;1.13;;
12816;SDS011;6473;51.552;6.716;2022-09-09T08:48:07;3.38;;;1.10;;
12816;SDS011;6473;51.552;6.716;2022-09-09T08:50:48;2.92;;;1.23;;
12816;SDS011;6473;51.552;6.716;2022-09-09T08:53:23;3.50;;;1.08;;
12816;SDS011;6473;51.552;6.716;2022-09-09T08:55:56;2.17;;;0.95;;
12816;SDS011;6473;51.552;6.716;2022-09-09T08:58:31;3.38;;;1.10;;
12816;SDS011;6473;51.552;6.716;2022-09-09T09:01:10;2.53;;;0.95;;
12816;SDS011;6473;51.552;6.716;2022-09-09T09:03:57;2.92;;;1.02;;
12816;SDS011;6473;51.552;6.716;2022-09-09T09:06:36;2.08;;;1.25;;
12816;SDS011;6473;51.552;6.716;2022-09-09T09:09:16;3.30;;;1.20;;
12816;SDS011;6473;51.552;6.716;2022-09-09T09:12:11;2.75;;;1.10;;
12816;SDS011;6473;51.552;6.716;2022-09-09T09:14:47;2.33;;;1.20;;
12816;SDS011;6473;51.552;6.716;2022-09-09T09:17:17;3.60;;;1.15;;
12816;SDS011;6473;51.552;6.716;2022-09-09T09:19:47;3.47;;;1.20;;
12816;SDS011;6473;51.552;6.716;2022-09-09T09:22:17;3.40;;;1.00;;
12816;SDS011;6473;51.552;6.716;2022-09-09T09:25:10;2.35;;;1.20;;
12816;SDS011;6473;51.552;6.716;2022-09-09T09:27:44;4.57;;;1.60;;
12816;SDS011;6473;51.552;6.716;2022-09-09T09:30:18;3.35;;;1.00;;
12816;SDS011;6473;51.552;6.716;2022-09-09T09:32:49;3.50;;;1.30;;
12816;SDS011;6473;51.552;6.716;2022-09-09T09:35:24;1.30;;;1.00;;
12816;SDS011;6473;51.552;6.716;2022-09-09T09:37:51;3.20;;;1.30;;
12816;SDS011;6473;51.552;6.716;2022-09-09T09:40:23;3.55;;;1.15;;
12816;SDS011;6473;51.552;6.716;2022-09-09T09:42:54;1.73;;;0.98;;
12816;SDS011;6473;51.552;6.716;2022-09-09T09:45:28;3.38;;;1.30;;
12816;SDS011;6473;51.552;6.716;2022-09-09T09:48:01;1.65;;;1.10;;
12816;SDS011;6473;51.552;6.716;2022-09-09T09:50:31;3.10;;;1.20;;
12816;SDS011;6473;51.552;6.716;2022-09-09T09:53:02;2.67;;;1.10;;
12816;SDS011;6473;51.552;6.716;2022-09-09T09:55:35;2.30;;;1.10;;
12816;SDS011;6473;51.552;6.716;2022-09-09T09:58:14;2.17;;;0.90;;
12816;SDS011;6473;51.552;6.716;2022-09-09T10:00:52;3.30;;;1.10;;
12816;SDS011;6473;51.552;6.716;2022-09-09T10:03:25;2.60;;;1.13;;
12816;SDS011;6473;51.552;6.716;2022-09-09T10:05:54;3.15;;;1.27;;
12816;SDS011;6473;51.552;6.716;2022-09-09T10:08:23;3.05;;;1.27;;
12816;SDS011;6473;51.552;6.716;2022-09-09T10:11:02;1.92;;;1.08;;
12816;SDS011;6473;51.552;6.716;2022-09-09T10:13:44;1.05;;;0.65;;
12816;SDS011;6473;51.552;6.716;2022-09-09T10:16:36;3.05;;;0.90;;
12816;SDS011;6473;51.552;6.716;2022-09-09T10:19:15;3.15;;;1.00;;
12816;SDS011;6473;51.552;6.716;2022-09-09T10:21:56;2.30;;;1.13;;
12816;SDS011;6473;51.552;6.716;2022-09-09T10:24:55;4.63;;;1.00;;
12816;SDS011;6473;51.552;6.716;2022-09-09T10:27:46;3.92;;;1.30;;
12816;SDS011;6473;51.552;6.716;2022-09-09T10:30:33;5.28;;;0.90;;
12816;SDS011;6473;51.552;6.716;2022-09-09T10:33:19;1.77;;;1.10;;
12816;SDS011;6473;51.552;6.716;2022-09-09T10:38:57;2.88;;;1.23;;
12816;SDS011;6473;51.552;6.716;2022-09-09T10:41:38;3.13;;;1.10;;
12816;SDS011;6473;51.552;6.716;2022-09-09T10:44:33;1.23;;;0.90;;
12816;SDS011;6473;51.552;6.716;2022-09-09T10:47:51;1.50;;;0.85;;
12816;SDS011;6473;51.552;6.716;2022-09-09T10:50:41;1.40;;;0.75;;
12816;SDS011;6473;51.552;6.716;2022-09-09T10:53:19;2.55;;;1.00;;
12816;SDS011;6473;51.552;6.716;2022-09-09T10:55:53;2.88;;;1.17;;
12816;SDS011;6473;51.552;6.716;2022-09-09T10:58:42;2.35;;;1.02;;
12816;SDS011;6473;51.552;6.716;2022-09-09T11:01:17;2.17;;;1.17;;
12816;SDS011;6473;51.552;6.716;2022-09-09T11:03:49;2.85;;;1.13;;
12816;SDS011;6473;51.552;6.716;2022-09-09T11:06:40;2.42;;;1.08;;
12816;SDS011;6473;51.552;6.716;2022-09-09T11:09:13;1.90;;;0.98;;
12816;SDS011;6473;51.552;6.716;2022-09-09T11:11:45;2.40;;;0.95;;
12816;SDS011;6473;51.552;6.716;2022-09-09T11:14:19;2.22;;;1.02;;
12816;SDS011;6473;51.552;6.716;2022-09-09T11:16:53;2.50;;;0.90;;
12816;SDS011;6473;51.552;6.716;2022-09-09T11:19:26;3.15;;;1.20;;
12816;SDS011;6473;51.552;6.716;2022-09-09T11:22:00;1.83;;;1.02;;
12816;SDS011;6473;51.552;6.716;2022-09-09T11:24:29;4.55;;;0.88;;
12816;SDS011;6473;51.552;6.716;2022-09-09T11:27:15;1.70;;;1.15;;
12816;SDS011;6473;51.552;6.716;2022-09-09T11:29:59;2.42;;;0.80;;
12816;SDS011;6473;51.552;6.716;2022-09-09T11:32:56;1.65;;;1.00;;
12816;SDS011;6473;51.552;6.716;2022-09-09T11:35:53;2.40;;;1.02;;
12816;SDS011;6473;51.552;6.716;2022-09-09T11:38:32;2.08;;;1.00;;
12816;SDS011;6473;51.552;6.716;2022-09-09T11:41:32;2.78;;;1.00;;
12816;SDS011;6473;51.552;6.716;2022-09-09T11:44:09;2.90;;;0.98;;
12816;SDS011;6473;51.552;6.716;2022-09-09T11:47:03;1.38;;;1.13;;
12816;SDS011;6473;51.552;6.716;2022-09-09T11:49:47;1.15;;;0.90;;
12816;SDS011;6473;51.552;6.716;2022-09-09T11:52:35;1.70;;;1.20;;
12816;SDS011;6473;51.552;6.716;2022-09-09T11:55:24;1.42;;;1.00;;
12816;SDS011;6473;51.552;6.716;2022-09-09T11:58:02;1.80;;;1.20;;
12816;SDS011;6473;51.552;6.716;2022-09-09T12:00:34;2.25;;;1.38;;
12816;SDS011;6473;51.552;6.716;2022-09-09T12:03:34;2.42;;;1.20;;
12816;SDS011;6473;51.552;6.716;2022-09-09T12:06:10;1.98;;;1.13;;
12816;SDS011;6473;51.552;6.716;2022-09-09T12:08:41;1.95;;;1.13;;
12816;SDS011;6473;51.552;6.716;2022-09-09T12:11:23;2.13;;;1.08;;
12816;SDS011;6473;51.552;6.716;2022-09-09T12:13:52;1.60;;;0.73;;
12816;SDS011;6473;51.552;6.716;2022-09-09T12:16:35;0.80;;;0.60;;
12816;SDS011;6473;51.552;6.716;2022-09-09T12:19:06;1.33;;;0.80;;
12816;SDS011;6473;51.552;6.716;2022-09-09T12:21:44;1.48;;;0.80;;
12816;SDS011;6473;51.552;6.716;2022-09-09T12:24:25;1.02;;;0.75;;
12816;SDS011;6473;51.552;6.716;2022-09-09T12:27:05;0.98;;;0.80;;
12816;SDS011;6473;51.552;6.716;2022-09-09T12:29:41;0.80;;;0.80;;
12816;SDS011;6473;51.552;6.716;2022-09-09T12:32:15;1.90;;;0.70;;
12816;SDS011;6473;51.552;6.716;2022-09-09T12:34:47;1.92;;;0.60;;
12816;SDS011;6473;51.552;6.716;2022-09-09T12:37:21;0.73;;;0.70;;
12816;SDS011;6473;51.552;6.716;2022-09-09T12:39:57;2.35;;;0.65;;
12816;SDS011;6473;51.552;6.716;2022-09-09T12:42:39;0.80;;;0.80;;
12816;SDS011;6473;51.552;6.716;2022-09-09T12:45:14;2.00;;;0.75;;
12816;SDS011;6473;51.552;6.716;2022-09-09T12:47:44;1.15;;;0.80;;
12816;SDS011;6473;51.552;6.716;2022-09-09T12:50:17;1.88;;;0.80;;
12816;SDS011;6473;51.552;6.716;2022-09-09T12:52:52;2.28;;;0.75;;
12816;SDS011;6473;51.552;6.716;2022-09-09T12:55:25;1.20;;;0.70;;
12816;SDS011;6473;51.552;6.716;2022-09-09T12:58:13;1.45;;;0.63;;
12816;SDS011;6473;51.552;6.716;2022-09-09T13:00:55;1.73;;;0.93;;
12816;SDS011;6473;51.552;6.716;2022-09-09T13:03:41;1.95;;;0.80;;
12816;SDS011;6473;51.552;6.716;2022-09-09T13:06:13;2.67;;;1.15;;
12816;SDS011;6473;51.552;6.716;2022-09-09T13:08:50;0.82;;;0.80;;
12816;SDS011;6473;51.552;6.716;2022-09-09T13:11:20;1.83;;;0.90;;
12816;SDS011;6473;51.552;6.716;2022-09-09T13:14:01;1.33;;;0.70;;
12816;SDS011;6473;51.552;6.716;2022-09-09T13:16:30;2.42;;;0.80;;
12816;SDS011;6473;51.552;6.716;2022-09-09T13:18:58;1.20;;;1.10;;
12816;SDS011;6473;51.552;6.716;2022-09-09T13:21:33;2.75;;;1.17;;
12816;SDS011;6473;51.552;6.716;2022-09-09T13:24:04;1.63;;;0.90;;
12816;SDS011;6473;51.552;6.716;2022-09-09T13:26:53;2.22;;;1.02;;
12816;SDS011;6473;51.552;6.716;2022-09-09T13:29:24;0.70;;;0.70;;
12816;SDS011;6473;51.552;6.716;2022-09-09T13:32:16;3.45;;;1.10;;
12816;SDS011;6473;51.552;6.716;2022-09-09T13:34:50;2.85;;;0.90;;
12816;SDS011;6473;51.552;6.716;2022-09-09T13:37:19;2.80;;;1.05;;
12816;SDS011;6473;51.552;6.716;2022-09-09T13:39:52;1.27;;;0.93;;
12816;SDS011;6473;51.552;6.716;2022-09-09T13:42:24;2.25;;;1.10;;
12816;SDS011;6473;51.552;6.716;2022-09-09T13:45:00;1.92;;;0.90;;
12816;SDS011;6473;51.552;6.716;2022-09-09T13:47:30;1.40;;;1.30;;
12816;SDS011;6473;51.552;6.716;2022-09-09T13:50:09;2.42;;;1.20;;
12816;SDS011;6473;51.552;6.716;2022-09-09T13:52:55;1.13;;;1.02;;
12816;SDS011;6473;51.552;6.716;2022-09-09T13:55:26;1.88;;;1.30;;
12816;SDS011;6473;51.552;6.716;2022-09-09T13:57:55;1.70;;;1.02;;
12816;SDS011;6473;51.552;6.716;2022-09-09T14:00:23;1.10;;;1.10;;
12816;SDS011;6473;51.552;6.716;2022-09-09T14:02:51;1.83;;;1.20;;
12816;SDS011;6473;51.552;6.716;2022-09-09T14:05:20;1.50;;;0.90;;
12816;SDS011;6473;51.552;6.716;2022-09-09T14:07:47;2.28;;;1.00;;
12816;SDS011;6473;51.552;6.716;2022-09-09T14:10:15;3.38;;;1.02;;
12816;SDS011;6473;51.552;6.716;2022-09-09T14:12:44;1.27;;;1.02;;
12816;SDS011;6473;51.552;6.716;2022-09-09T14:15:11;2.08;;;0.90;;
12816;SDS011;6473;51.552;6.716;2022-09-09T14:17:43;1.13;;;1.05;;
12816;SDS011;6473;51.552;6.716;2022-09-09T14:20:10;1.98;;;1.15;;
12816;SDS011;6473;51.552;6.716;2022-09-09T14:22:43;0.73;;;0.70;;
12816;SDS011;6473;51.552;6.716;2022-09-09T14:25:10;3.10;;;1.02;;
12816;SDS011;6473;51.552;6.716;2022-09-09T14:27:40;2.05;;;1.08;;
12816;SDS011;6473;51.552;6.716;2022-09-09T14:30:12;1.08;;;0.90;;
12816;SDS011;6473;51.552;6.716;2022-09-09T14:32:39;0.85;;;0.55;;
12816;SDS011;6473;51.552;6.716;2022-09-09T14:35:09;3.25;;;0.77;;
12816;SDS011;6473;51.552;6.716;2022-09-09T14:37:37;3.17;;;1.00;;
12816;SDS011;6473;51.552;6.716;2022-09-09T14:40:07;5.00;;;1.58;;
12816;SDS011;6473;51.552;6.716;2022-09-09T14:42:37;1.65;;;1.30;;
12816;SDS011;6473;51.552;6.716;2022-09-09T14:45:06;2.67;;;1.42;;
12816;SDS011;6473;51.552;6.716;2022-09-09T14:47:36;3.63;;;1.30;;
12816;SDS011;6473;51.552;6.716;2022-09-09T14:50:03;1.40;;;1.00;;
12816;SDS011;6473;51.552;6.716;2022-09-09T14:52:31;2.55;;;1.45;;
12816;SDS011;6473;51.552;6.716;2022-09-09T14:54:58;2.20;;;1.65;;
12816;SDS011;6473;51.552;6.716;2022-09-09T14:57:32;3.58;;;3.25;;
12816;SDS011;6473;51.552;6.716;2022-09-09T15:00:00;2.58;;;2.00;;
12816;SDS011;6473;51.552;6.716;2022-09-09T15:02:53;2.60;;;1.42;;
12816;SDS011;6473;51.552;6.716;2022-09-09T15:05:20;2.03;;;1.08;;
12816;SDS011;6473;51.552;6.716;2022-09-09T15:07:48;3.50;;;1.25;;
12816;SDS011;6473;51.552;6.716;2022-09-09T15:10:14;2.13;;;1.55;;
12816;SDS011;6473;51.552;6.716;2022-09-09T15:12:42;1.63;;;1.25;;
12816;SDS011;6473;51.552;6.716;2022-09-09T15:15:09;3.00;;;1.15;;
12816;SDS011;6473;51.552;6.716;2022-09-09T15:17:37;3.72;;;1.40;;
12816;SDS011;6473;51.552;6.716;2022-09-09T15:20:07;1.83;;;1.40;;
12816;SDS011;6473;51.552;6.716;2022-09-09T15:22:37;2.70;;;1.52;;
12816;SDS011;6473;51.552;6.716;2022-09-09T15:25:07;2.95;;;1.67;;
12816;SDS011;6473;51.552;6.716;2022-09-09T15:27:35;3.42;;;1.80;;
12816;SDS011;6473;51.552;6.716;2022-09-09T15:30:06;2.40;;;1.67;;
12816;SDS011;6473;51.552;6.716;2022-09-09T15:32:34;2.80;;;1.60;;
12816;SDS011;6473;51.552;6.716;2022-09-09T15:35:01;3.95;;;1.83;;
12816;SDS011;6473;51.552;6.716;2022-09-09T15:37:30;1.60;;;1.27;;
12816;SDS011;6473;51.552;6.716;2022-09-09T15:39:57;2.35;;;1.70;;
12816;SDS011;6473;51.552;6.716;2022-09-09T15:42:25;1.90;;;1.20;;
12816;SDS011;6473;51.552;6.716;2022-09-09T15:44:52;3.50;;;1.58;;
12816;SDS011;6473;51.552;6.716;2022-09-09T15:47:19;2.50;;;1.30;;
12816;SDS011;6473;51.552;6.716;2022-09-09T15:49:46;1.30;;;1.05;;
12816;SDS011;6473;51.552;6.716;2022-09-09T15:52:13;1.35;;;1.05;;
12816;SDS011;6473;51.552;6.716;2022-09-09T15:54:44;2.50;;;1.20;;
12816;SDS011;6473;51.552;6.716;2022-09-09T15:57:22;2.30;;;1.23;;
12816;SDS011;6473;51.552;6.716;2022-09-09T15:59:51;1.35;;;1.25;;
12816;SDS011;6473;51.552;6.716;2022-09-09T16:02:18;1.13;;;1.08;;
12816;SDS011;6473;51.552;6.716;2022-09-09T16:04:46;1.20;;;1.10;;
12816;SDS011;6473;51.552;6.716;2022-09-09T16:07:13;1.35;;;1.25;;
12816;SDS011;6473;51.552;6.716;2022-09-09T16:09:40;2.95;;;1.35;;
12816;SDS011;6473;51.552;6.716;2022-09-09T16:12:09;3.58;;;1.48;;
12816;SDS011;6473;51.552;6.716;2022-09-09T16:14:38;2.25;;;1.52;;